Time;durP1;ratioP1;P1;durP2;ratioP2;P2;SDS_P1;SDS_P2;PMS_P1;PMS_P2;Temp;Humidity;BMP_temperature;BMP_pressure;BME280_temperature;BME280_humidity;BME280_pressure;Samples;Min_cycle;Max_cycle;Signal;HPM_P1;HPM_P2
2022/12/29 00:01:25;;;;;;;1.20;1.20;;;;;;;6.98;100.00;100620.41;5053138;28;20228;-62
2022/12/29 00:03:52;;;;;;;0.73;0.73;;;;;;;6.97;100.00;100628.94;5053129;28;20231;-60
2022/12/29 00:06:20;;;;;;;0.50;0.50;;;;;;;6.94;100.00;100634.03;5053495;28;20672;-60
2022/12/29 00:08:47;;;;;;;0.60;0.60;;;;;;;6.95;100.00;100627.22;5052703;28;20650;-60
2022/12/29 00:11:15;;;;;;;0.50;0.50;;;;;;;6.84;100.00;100607.66;5053084;28;20611;-60
2022/12/29 00:16:27;;;;;;;0.43;0.43;;;;;;;6.92;100.00;100630.59;5048846;28;20204;-59
2022/12/29 00:18:54;;;;;;;0.60;0.60;;;;;;;6.90;100.00;100632.28;5052936;28;20212;-60
2022/12/29 00:35:24;;;;;;;0.47;0.47;;;;;;;6.91;100.00;100643.34;5052660;28;20212;-60
2022/12/29 00:46:05;;;;;;;0.50;0.50;;;;;;;6.80;100.00;100663.69;5051058;28;20720;-60
2022/12/29 00:51:16;;;;;;;0.60;0.60;;;;;;;6.82;100.00;100662.84;5052514;28;20715;-60
2022/12/29 00:53:44;;;;;;;0.60;0.60;;;;;;;6.82;100.00;100661.97;5052382;28;20737;-60
2022/12/29 00:56:11;;;;;;;0.70;0.70;;;;;;;6.83;100.00;100663.69;5052267;28;20203;-60
2022/12/29 00:58:38;;;;;;;0.50;0.50;;;;;;;6.86;100.00;100661.16;5052137;28;20250;-60
2022/12/29 01:01:05;;;;;;;0.60;0.60;;;;;;;6.82;100.00;100669.63;5051794;28;20213;-60
2022/12/29 01:03:33;;;;;;;0.50;0.50;;;;;;;6.87;100.00;100655.22;5051772;28;20223;-60
2022/12/29 01:06:01;;;;;;;0.57;0.57;;;;;;;6.89;100.00;100650.97;5052351;28;20262;-60
2022/12/29 01:08:28;;;;;;;0.50;0.50;;;;;;;6.90;100.00;100650.13;5052256;28;20615;-60
2022/12/29 01:11:00;;;;;;;0.50;0.50;;;;;;;6.89;100.00;100653.53;5048932;28;20201;-60
2022/12/29 01:13:27;;;;;;;0.40;0.40;;;;;;;6.84;100.00;100653.53;5049244;28;20255;-60
2022/12/29 01:15:54;;;;;;;0.70;0.70;;;;;;;6.79;100.00;100655.19;5051838;28;20254;-60
2022/12/29 01:18:21;;;;;;;0.50;0.50;;;;;;;6.72;100.00;100647.50;5051785;28;20208;-60
2022/12/29 01:20:48;;;;;;;0.60;0.60;;;;;;;6.68;100.00;100640.69;5051750;28;20968;-60
2022/12/29 01:23:15;;;;;;;0.80;0.80;;;;;;;6.66;100.00;100637.25;5051425;28;20688;-59
2022/12/29 01:25:42;;;;;;;1.43;1.43;;;;;;;6.68;100.00;100641.53;5051533;28;20201;-60
2022/12/29 01:28:10;;;;;;;0.60;0.60;;;;;;;6.70;100.00;100641.53;5051726;28;20208;-60
2022/12/29 01:30:37;;;;;;;0.50;0.50;;;;;;;6.69;100.00;100642.38;5051582;28;20196;-60
2022/12/29 01:33:04;;;;;;;0.60;0.60;;;;;;;6.71;100.00;100639.00;5051409;28;20259;-60
2022/12/29 01:35:31;;;;;;;1.10;1.10;;;;;;;6.71;100.00;100640.69;5051726;28;20262;-60
2022/12/29 01:37:57;;;;;;;1.07;1.07;;;;;;;6.74;100.00;100638.16;5051264;28;20205;-60
2022/12/29 01:40:25;;;;;;;0.60;0.60;;;;;;;6.77;100.00;100639.03;5051195;28;20258;-60
2022/12/29 01:42:52;;;;;;;0.80;0.80;;;;;;;6.73;100.00;100632.22;5051178;28;20219;-60
2022/12/29 01:45:20;;;;;;;0.50;0.50;;;;;;;6.73;100.00;100629.66;5050713;28;20204;-60
2022/12/29 01:47:49;;;;;;;0.77;0.77;;;;;;;6.77;100.00;100621.19;5051153;28;20196;-60
2022/12/29 01:50:21;;;;;;;0.67;0.67;;;;;;;6.65;100.00;100615.19;5051232;28;20200;-60
2022/12/29 01:52:54;;;;;;;0.60;0.60;;;;;;;6.60;100.00;100601.56;5048692;28;20200;-60
2022/12/29 01:55:22;;;;;;;0.60;0.60;;;;;;;6.53;100.00;100599.81;5051209;28;20197;-60
2022/12/29 01:57:52;;;;;;;0.50;0.50;;;;;;;6.45;100.00;100601.50;5048876;28;20197;-60
2022/12/29 02:00:20;;;;;;;0.80;0.80;;;;;;;6.38;100.00;100598.06;5051689;28;20200;-60
2022/12/29 02:02:51;;;;;;;0.50;0.50;;;;;;;6.32;100.00;100595.47;5050846;28;20221;-60
2022/12/29 02:05:25;;;;;;;0.50;0.50;;;;;;;6.27;100.00;100595.44;5051497;28;20204;-60
2022/12/29 02:07:54;;;;;;;1.47;1.47;;;;;;;6.28;100.00;100592.06;5051098;28;20258;-60
2022/12/29 02:10:22;;;;;;;0.63;0.63;;;;;;;6.28;100.00;100579.31;5050727;28;20212;-60
2022/12/29 02:12:49;;;;;;;0.50;0.50;;;;;;;6.29;100.00;100575.94;5050306;28;20197;-60
2022/12/29 02:15:16;;;;;;;0.50;0.50;;;;;;;6.35;100.00;100577.66;5050803;28;20196;-60
2022/12/29 02:17:59;;;;;;;0.60;0.60;;;;;;;6.37;100.00;100577.66;5051200;28;20580;-60
2022/12/29 02:20:51;;;;;;;0.80;0.80;;;;;;;6.39;100.00;100574.31;5050452;28;20208;-60
2022/12/29 02:23:51;;;;;;;0.67;0.67;;;;;;;6.32;100.00;100558.13;5049903;28;20216;-60
2022/12/29 02:26:41;;;;;;;0.60;0.60;;;;;;;6.44;100.00;100569.22;5050617;28;20262;-60
2022/12/29 02:29:47;;;;;;;0.60;0.60;;;;;;;6.44;100.00;100564.13;5050745;28;20211;-60
2022/12/29 02:32:22;;;;;;;0.70;0.70;;;;;;;6.45;100.00;100565.84;5049217;28;20188;-60
2022/12/29 02:34:58;;;;;;;0.53;0.53;;;;;;;6.44;100.00;100564.97;5048592;28;20227;-60
2022/12/29 02:37:31;;;;;;;1.40;1.23;;;;;;;6.45;100.00;100570.94;5050904;28;20259;-60
2022/12/29 02:40:07;;;;;;;1.17;1.17;;;;;;;6.26;100.00;100553.00;5050816;28;20665;-60
2022/12/29 02:42:42;;;;;;;0.80;0.80;;;;;;;6.23;100.00;100578.47;5047873;28;20226;-60
2022/12/29 02:45:16;;;;;;;0.63;0.63;;;;;;;6.06;100.00;100572.41;5050363;28;20246;-60
2022/12/29 02:47:52;;;;;;;0.70;0.70;;;;;;;6.01;100.00;100568.94;5050785;28;20200;-60
2022/12/29 02:50:26;;;;;;;0.60;0.60;;;;;;;6.03;100.00;100567.28;5050362;28;20207;-59
2022/12/29 02:52:58;;;;;;;0.50;0.50;;;;;;;6.04;100.00;100568.97;5050619;28;20681;-60
2022/12/29 02:55:23;;;;;;;0.50;0.50;;;;;;;6.00;100.00;100569.81;5050499;28;20197;-60
2022/12/29 02:58:14;;;;;;;0.53;0.53;;;;;;;5.97;100.00;100567.25;5050280;28;20634;-60
2022/12/29 03:00:56;;;;;;;0.60;0.60;;;;;;;5.91;100.00;100562.13;5047696;28;20200;-60
2022/12/29 03:03:37;;;;;;;1.50;1.50;;;;;;;5.92;100.00;100558.72;5047613;28;20243;-60
2022/12/29 03:06:33;;;;;;;0.60;0.60;;;;;;;5.84;100.00;100550.16;5048006;28;20223;-60
2022/12/29 03:09:11;;;;;;;0.60;0.60;;;;;;;5.85;100.00;100556.09;5050035;28;20224;-60
2022/12/29 03:17:30;;;;;;;0.50;0.50;;;;;;;5.82;100.00;100556.91;5050490;28;20633;-59
2022/12/29 03:20:05;;;;;;;0.80;0.80;;;;;;;5.81;100.00;100555.22;5050381;28;20201;-60
2022/12/29 03:22:37;;;;;;;0.80;0.80;;;;;;;5.79;100.00;100561.97;5047526;28;20208;-60
2022/12/29 03:25:10;;;;;;;1.07;1.07;;;;;;;5.76;100.00;100554.31;5051001;28;20197;-60
2022/12/29 03:27:42;;;;;;;0.50;0.50;;;;;;;5.70;100.00;100549.19;5051550;28;20208;-60
2022/12/29 03:30:09;;;;;;;1.33;1.33;;;;;;;5.66;100.00;100550.00;5052925;28;20201;-60
2022/12/29 03:32:42;;;;;;;0.70;0.70;;;;;;;5.63;100.00;100549.97;5053337;28;20263;-60
2022/12/29 03:35:14;;;;;;;0.60;0.60;;;;;;;5.62;100.00;100543.19;5052544;28;20203;-59
2022/12/29 03:37:46;;;;;;;0.57;0.57;;;;;;;5.64;100.00;100539.81;5051370;28;20250;-59
2022/12/29 03:40:13;;;;;;;0.60;0.60;;;;;;;5.58;100.00;100527.06;5053652;28;20205;-60
2022/12/29 03:42:41;;;;;;;1.03;1.03;;;;;;;5.65;100.00;100543.22;5053745;28;20235;-60
2022/12/29 03:45:10;;;;;;;1.53;1.43;;;;;;;5.68;100.00;100540.69;5053644;28;20197;-60
2022/12/29 03:47:37;;;;;;;0.60;0.60;;;;;;;5.64;100.00;100541.50;5052513;28;20669;-59
2022/12/29 03:50:04;;;;;;;1.00;1.00;;;;;;;5.58;100.00;100536.38;5053692;28;20262;-59
2022/12/29 03:52:32;;;;;;;0.50;0.50;;;;;;;5.58;100.00;100546.56;5053371;28;20276;-60
2022/12/29 03:54:59;;;;;;;5.53;2.23;;;;;;;5.56;100.00;100546.53;5053323;28;20209;-60
2022/12/29 03:57:26;;;;;;;0.70;0.70;;;;;;;5.58;100.00;100546.56;5053337;28;20205;-60
2022/12/29 03:59:52;;;;;;;0.50;0.50;;;;;;;5.56;100.00;100543.13;5053268;28;20211;-60
2022/12/29 04:02:19;;;;;;;0.70;0.70;;;;;;;5.56;100.00;100545.66;5053175;28;20724;-59
2022/12/29 04:04:46;;;;;;;0.50;0.50;;;;;;;5.54;100.00;100553.31;5053225;28;20197;-60
2022/12/29 04:07:13;;;;;;;1.00;1.00;;;;;;;5.53;100.00;100548.19;5052631;28;20628;-60
2022/12/29 04:09:41;;;;;;;0.50;0.50;;;;;;;5.52;100.00;100551.59;5052778;28;20278;-60
2022/12/29 04:12:08;;;;;;;0.50;0.50;;;;;;;5.46;100.00;100557.44;5053198;28;20203;-60
2022/12/29 04:14:34;;;;;;;0.73;0.73;;;;;;;5.41;100.00;100563.34;5052853;28;20598;-60
2022/12/29 04:17:01;;;;;;;0.60;0.60;;;;;;;5.36;100.00;100565.88;5052949;28;20692;-60
2022/12/29 04:19:28;;;;;;;0.70;0.70;;;;;;;5.33;100.00;100575.16;5052636;28;20584;-59
2022/12/29 04:21:55;;;;;;;0.63;0.63;;;;;;;5.29;100.00;100570.03;5052744;28;20664;-60
2022/12/29 04:24:21;;;;;;;0.60;0.60;;;;;;;5.29;100.00;100575.13;5053043;28;20201;-60
2022/12/29 04:26:49;;;;;;;0.50;0.50;;;;;;;5.28;100.00;100568.31;5052890;28;20235;-59
2022/12/29 04:29:16;;;;;;;0.70;0.70;;;;;;;5.23;100.00;100575.03;5051669;28;20208;-60
2022/12/29 04:31:43;;;;;;;0.60;0.60;;;;;;;5.20;100.00;100575.00;5052471;28;20208;-60
2022/12/29 04:34:10;;;;;;;0.67;0.67;;;;;;;5.17;100.00;100584.31;5052551;28;20212;-60
2022/12/29 04:36:37;;;;;;;0.73;0.73;;;;;;;5.09;100.00;100581.69;5051316;28;20197;-60
2022/12/29 04:39:05;;;;;;;0.60;0.60;;;;;;;5.05;100.00;100590.09;5051939;28;20208;-60
2022/12/29 04:41:31;;;;;;;0.60;0.60;;;;;;;5.03;100.00;100586.72;5052570;28;20258;-60
2022/12/29 04:44:00;;;;;;;0.50;0.50;;;;;;;5.07;100.00;100588.41;5052252;28;20209;-60
2022/12/29 04:46:26;;;;;;;0.77;0.77;;;;;;;5.08;100.00;100589.28;5051238;28;20192;-60
2022/12/29 04:48:53;;;;;;;0.57;0.57;;;;;;;5.06;100.00;100596.91;5051826;28;20197;-61
2022/12/29 04:51:20;;;;;;;0.60;0.60;;;;;;;5.03;100.00;100594.31;5052078;28;20201;-59
2022/12/29 04:53:47;;;;;;;0.63;0.63;;;;;;;5.01;100.00;100590.06;5052020;28;20204;-60
2022/12/29 04:56:13;;;;;;;0.50;0.50;;;;;;;5.04;100.00;100593.47;5051817;28;20288;-60
2022/12/29 04:58:40;;;;;;;0.50;0.50;;;;;;;5.04;100.00;100587.56;5051764;28;20204;-60
2022/12/29 05:01:08;;;;;;;0.70;0.70;;;;;;;5.00;100.00;100591.75;5051718;28;20193;-59
2022/12/29 05:03:35;;;;;;;0.70;0.70;;;;;;;5.00;100.00;100595.97;5051704;28;20225;-59
2022/12/29 05:06:02;;;;;;;0.80;0.80;;;;;;;4.98;100.00;100600.16;5051551;28;20196;-60
2022/12/29 05:08:29;;;;;;;0.97;0.97;;;;;;;4.93;100.00;100606.91;5051641;28;20197;-60
2022/12/29 05:10:56;;;;;;;0.50;0.50;;;;;;;4.91;100.00;100611.94;5051996;28;20200;-60
2022/12/29 05:13:22;;;;;;;0.50;0.50;;;;;;;4.89;100.00;100603.47;5051854;28;20201;-59
2022/12/29 05:15:51;;;;;;;0.60;0.60;;;;;;;4.90;100.00;100599.25;5051855;28;20269;-59
2022/12/29 05:18:20;;;;;;;0.60;0.60;;;;;;;4.88;100.00;100601.75;5051504;28;20204;-60
2022/12/29 05:20:47;;;;;;;0.60;0.60;;;;;;;4.88;100.00;100595.84;5051703;28;20193;-59
2022/12/29 05:23:15;;;;;;;0.90;0.90;;;;;;;4.87;100.00;100589.91;5051212;28;20212;-59
2022/12/29 05:25:42;;;;;;;0.70;0.70;;;;;;;4.87;100.00;100600.06;5049680;28;20208;-60
2022/12/29 05:28:09;;;;;;;0.80;0.80;;;;;;;4.78;100.00;100579.63;5051397;28;20208;-60
2022/12/29 05:30:35;;;;;;;0.57;0.57;;;;;;;4.86;100.00;100589.88;5050960;28;20234;-59
2022/12/29 05:33:02;;;;;;;0.60;0.60;;;;;;;4.84;100.00;100589.88;5051413;28;20196;-59
2022/12/29 05:35:30;;;;;;;0.50;0.50;;;;;;;4.81;100.00;100587.28;5051418;28;20219;-59
2022/12/29 05:37:57;;;;;;;0.60;0.60;;;;;;;4.80;100.00;100588.13;5051188;28;20205;-59
2022/12/29 05:40:24;;;;;;;0.83;0.83;;;;;;;4.76;100.00;100581.28;5048942;28;20613;-59
2022/12/29 05:42:51;;;;;;;1.07;1.07;;;;;;;4.80;100.00;100590.66;5044367;28;20565;-59
2022/12/29 05:45:17;;;;;;;0.60;0.60;;;;;;;4.72;100.00;100593.09;5046347;28;20205;-59
2022/12/29 05:47:44;;;;;;;0.77;0.77;;;;;;;4.73;100.00;100591.41;5046479;28;20205;-60
2022/12/29 05:50:11;;;;;;;1.70;1.17;;;;;;;4.69;100.00;100589.66;5050805;28;20651;-59
2022/12/29 05:52:39;;;;;;;0.60;0.60;;;;;;;4.64;100.00;100581.16;5049981;28;20192;-59
2022/12/29 05:55:07;;;;;;;0.60;0.60;;;;;;;4.63;100.00;100589.59;5050836;28;20201;-59
2022/12/29 05:57:34;;;;;;;0.50;0.50;;;;;;;4.63;100.00;100581.97;5050693;28;20246;-59
2022/12/29 06:00:01;;;;;;;0.70;0.70;;;;;;;4.62;100.00;100583.66;5050676;28;20200;-59
2022/12/29 06:02:27;;;;;;;0.70;0.70;;;;;;;4.60;100.00;100594.63;5050441;28;20224;-59
2022/12/29 06:04:54;;;;;;;0.60;0.60;;;;;;;4.57;100.00;100589.53;5050299;28;20204;-59
2022/12/29 06:07:21;;;;;;;0.50;0.50;;;;;;;4.57;100.00;100598.00;5050155;28;20655;-59
2022/12/29 06:09:49;;;;;;;0.50;0.50;;;;;;;4.54;100.00;100586.94;5050437;28;20196;-59
2022/12/29 06:12:16;;;;;;;0.60;0.60;;;;;;;4.50;100.00;100587.72;5050492;28;20209;-59
2022/12/29 06:14:43;;;;;;;1.23;1.03;;;;;;;4.43;100.00;100596.09;5050697;28;20292;-59
2022/12/29 06:17:10;;;;;;;1.23;1.23;;;;;;;4.41;100.00;100598.63;5050599;28;20201;-59
2022/12/29 06:19:36;;;;;;;0.70;0.70;;;;;;;4.32;100.00;100595.09;5050747;28;20197;-59
2022/12/29 06:22:03;;;;;;;0.70;0.70;;;;;;;4.26;100.00;100582.34;5047977;28;20665;-59
2022/12/29 06:24:30;;;;;;;0.50;0.50;;;;;;;4.32;100.00;100602.72;5049316;28;20220;-59
2022/12/29 06:26:58;;;;;;;0.60;0.60;;;;;;;4.32;100.00;100597.66;5049453;28;20246;-59
2022/12/29 06:29:25;;;;;;;1.53;1.53;;;;;;;4.22;100.00;100600.06;5050747;28;20258;-59
2022/12/29 06:31:55;;;;;;;1.63;1.63;;;;;;;4.18;100.00;100605.91;5050037;28;20219;-59
2022/12/29 06:34:22;;;;;;;0.70;0.70;;;;;;;4.06;100.00;100613.34;5048093;28;20561;-59
2022/12/29 06:36:49;;;;;;;0.60;0.60;;;;;;;3.92;100.00;100606.34;5050245;28;20205;-60
2022/12/29 06:39:16;;;;;;;0.77;0.77;;;;;;;3.83;100.00;100601.13;5047826;28;20694;-59
2022/12/29 06:41:42;;;;;;;0.67;0.67;;;;;;;3.91;100.00;100625.78;5044436;28;20208;-59
2022/12/29 06:44:11;;;;;;;0.50;0.50;;;;;;;3.98;100.00;100625.03;5045368;28;20262;-60
2022/12/29 06:46:37;;;;;;;0.50;0.50;;;;;;;4.00;100.00;100625.94;5048099;28;20973;-59
2022/12/29 06:49:04;;;;;;;0.60;0.60;;;;;;;4.03;100.00;100626.00;5047026;28;20205;-60
2022/12/29 06:51:31;;;;;;;0.80;0.80;;;;;;;4.10;100.00;100627.75;5048470;28;20204;-59
2022/12/29 06:53:58;;;;;;;0.57;0.57;;;;;;;4.09;100.00;100630.28;5047529;28;20197;-59
2022/12/29 06:56:24;;;;;;;1.43;1.43;;;;;;;4.10;100.00;100627.75;5044251;28;20216;-59
2022/12/29 06:58:51;;;;;;;0.63;0.63;;;;;;;4.09;100.00;100633.69;5047767;28;20200;-59
2022/12/29 07:01:19;;;;;;;0.80;0.80;;;;;;;4.13;100.00;100624.44;5052697;28;20270;-60
2022/12/29 07:03:46;;;;;;;0.60;0.60;;;;;;;4.19;100.00;100625.41;5051466;28;20232;-59
2022/12/29 07:06:13;;;;;;;0.60;0.60;;;;;;;4.21;100.00;100636.41;5051402;28;20200;-60
2022/12/29 07:08:40;;;;;;;0.50;0.50;;;;;;;4.26;100.00;100631.41;5051816;28;20299;-59
2022/12/29 07:11:07;;;;;;;1.97;1.97;;;;;;;4.32;100.00;100638.25;5051614;28;20209;-61
2022/12/29 07:13:33;;;;;;;0.80;0.80;;;;;;;4.39;100.00;100634.97;5052602;28;20199;-59
2022/12/29 07:16:00;;;;;;;0.50;0.50;;;;;;;4.45;100.00;100640.16;5051474;28;20209;-59
2022/12/29 07:18:28;;;;;;;0.60;0.60;;;;;;;4.49;100.00;100636.81;5052149;28;20200;-60
2022/12/29 07:20:55;;;;;;;0.50;0.50;;;;;;;4.48;100.00;100642.72;5052784;28;20692;-59
2022/12/29 07:23:22;;;;;;;0.60;0.60;;;;;;;4.43;100.00;100636.72;5052921;28;20217;-58
2022/12/29 07:25:48;;;;;;;0.50;0.50;;;;;;;4.40;100.00;100641.75;5051565;28;20208;-59
2022/12/29 07:28:15;;;;;;;0.73;0.73;;;;;;;4.38;100.00;100640.88;5051894;28;20212;-59
2022/12/29 07:30:42;;;;;;;0.60;0.60;;;;;;;4.43;100.00;100642.66;5052910;28;20204;-58
2022/12/29 07:33:09;;;;;;;0.73;0.73;;;;;;;4.47;100.00;100643.53;5051943;28;20270;-59
2022/12/29 07:35:37;;;;;;;0.50;0.50;;;;;;;4.46;100.00;100637.59;5051699;28;20204;-59
2022/12/29 07:38:03;;;;;;;0.67;0.67;;;;;;;4.36;100.00;100634.94;5049703;28;20204;-59
2022/12/29 07:40:30;;;;;;;0.80;0.80;;;;;;;4.43;100.00;100636.72;5051085;28;20251;-59
2022/12/29 07:42:57;;;;;;;0.90;0.90;;;;;;;4.48;100.00;100640.19;5052373;28;20734;-60
2022/12/29 07:45:24;;;;;;;0.50;0.50;;;;;;;4.51;100.00;100642.75;5051580;28;20205;-59
2022/12/29 07:47:50;;;;;;;2.53;2.43;;;;;;;4.55;100.00;100641.97;5052533;28;20210;-59
2022/12/29 07:50:17;;;;;;;0.97;0.97;;;;;;;4.58;100.00;100640.34;5053082;28;20215;-59
2022/12/29 07:52:47;;;;;;;0.50;0.50;;;;;;;4.60;100.00;100640.34;5053140;28;20201;-60
2022/12/29 07:55:14;;;;;;;0.60;0.60;;;;;;;4.58;100.00;100636.94;5052072;28;20196;-60
2022/12/29 07:57:41;;;;;;;0.60;0.60;;;;;;;4.63;100.00;100633.63;5052976;28;20569;-59
2022/12/29 08:00:10;;;;;;;0.40;0.40;;;;;;;4.67;100.00;100632.84;5052643;28;21582;-60
2022/12/29 08:02:37;;;;;;;0.67;0.67;;;;;;;4.56;100.00;100597.97;5053055;28;20650;-60
2022/12/29 08:05:04;;;;;;;0.50;0.50;;;;;;;4.79;100.00;100629.59;5052733;28;20212;-60
2022/12/29 08:07:31;;;;;;;1.17;1.07;;;;;;;4.90;100.00;100634.81;5052430;28;20207;-60
2022/12/29 08:09:59;;;;;;;1.03;1.03;;;;;;;4.99;100.00;100643.41;5049918;28;20566;-59
2022/12/29 08:12:26;;;;;;;0.90;0.90;;;;;;;5.03;100.00;100646.84;5050830;28;20207;-59
2022/12/29 08:14:53;;;;;;;0.67;0.67;;;;;;;5.12;100.00;100641.84;5052244;28;20196;-59
2022/12/29 08:17:20;;;;;;;0.60;0.60;;;;;;;5.17;100.00;100635.97;5052371;28;20205;-60
2022/12/29 08:19:46;;;;;;;0.60;0.60;;;;;;;5.26;100.00;100636.09;5052759;28;20205;-59
2022/12/29 08:22:14;;;;;;;0.57;0.57;;;;;;;5.34;100.00;100632.78;5052323;28;20219;-59
2022/12/29 08:24:41;;;;;;;0.60;0.60;;;;;;;5.43;100.00;100627.81;5052255;28;20221;-59
2022/12/29 08:27:10;;;;;;;2.27;2.17;;;;;;;5.51;100.00;100627.03;5052896;28;20205;-59
2022/12/29 08:29:37;;;;;;;0.80;0.80;;;;;;;5.60;100.00;100631.34;5048824;28;20250;-59
2022/12/29 08:32:04;;;;;;;0.60;0.60;;;;;;;5.72;100.00;100636.53;5049489;28;20197;-59
2022/12/29 08:34:31;;;;;;;1.20;1.20;;;;;;;5.82;100.00;100631.56;5050909;28;20197;-59
2022/12/29 08:36:58;;;;;;;0.70;0.70;;;;;;;5.83;100.00;100629.88;5050127;28;20259;-59
2022/12/29 08:39:25;;;;;;;0.67;0.67;;;;;;;5.82;100.00;100610.34;5050486;28;20219;-59
2022/12/29 08:41:52;;;;;;;0.60;0.60;;;;;;;5.77;100.00;100579.78;5050994;28;20635;-60
2022/12/29 08:44:20;;;;;;;0.40;0.40;;;;;;;6.05;100.00;100619.06;5050941;28;20286;-59
2022/12/29 08:46:47;;;;;;;0.50;0.50;;;;;;;6.15;100.00;100618.28;5051993;28;20201;-59
2022/12/29 08:49:14;;;;;;;0.50;0.50;;;;;;;6.30;100.00;100618.38;5051485;28;20209;-59
2022/12/29 08:51:40;;;;;;;1.27;1.27;;;;;;;6.47;100.00;100609.97;5052065;28;20577;-59
2022/12/29 08:54:07;;;;;;;0.60;0.60;;;;;;;6.61;100.00;100609.22;5050239;28;20634;-59
2022/12/29 08:56:34;;;;;;;0.50;0.50;;;;;;;6.75;100.00;100607.56;5048444;28;20609;-59
2022/12/29 08:59:01;;;;;;;1.70;1.70;;;;;;;6.81;100.00;100609.31;5045674;28;20285;-59
2022/12/29 09:01:30;;;;;;;0.53;0.53;;;;;;;6.84;100.00;100596.59;5050620;28;20196;-59
2022/12/29 09:03:57;;;;;;;0.50;0.50;;;;;;;6.96;100.00;100591.53;5051289;28;20229;-59
2022/12/29 09:06:23;;;;;;;0.63;0.63;;;;;;;7.12;100.00;100593.28;5051221;28;20216;-59
2022/12/29 09:08:50;;;;;;;0.83;0.83;;;;;;;7.24;100.00;100587.34;5051476;28;20200;-59
2022/12/29 09:11:20;;;;;;;1.37;1.37;;;;;;;7.27;100.00;100583.09;5049875;28;20266;-59
2022/12/29 09:13:48;;;;;;;0.50;0.50;;;;;;;7.43;100.00;100583.16;5051448;28;20219;-59
2022/12/29 09:16:15;;;;;;;0.40;0.40;;;;;;;7.54;100.00;100584.00;5048931;28;20207;-59
2022/12/29 09:18:45;;;;;;;0.70;0.70;;;;;;;7.69;100.00;100571.28;5052043;28;20666;-59
2022/12/29 09:21:12;;;;;;;1.33;1.23;;;;;;;7.70;100.00;100572.94;5051181;28;20554;-59
2022/12/29 09:23:40;;;;;;;0.40;0.40;;;;;;;7.81;100.00;100573.81;5045874;28;20216;-59
2022/12/29 09:26:07;;;;;;;0.60;0.60;;;;;;;7.86;100.00;100572.09;5046144;28;20200;-59
2022/12/29 09:28:34;;;;;;;1.30;1.30;;;;;;;7.93;100.00;100568.69;5048218;28;20254;-59
2022/12/29 09:31:01;;;;;;;0.67;0.67;;;;;;;7.88;100.00;100537.22;5049991;28;20204;-59
2022/12/29 09:33:28;;;;;;;0.60;0.60;;;;;;;8.00;100.00;100555.06;5048812;28;20665;-59
2022/12/29 09:35:58;;;;;;;0.70;0.70;;;;;;;8.16;100.00;100559.31;5049388;28;20208;-59
2022/12/29 09:38:27;;;;;;;0.60;0.60;;;;;;;8.27;100.00;100552.44;5049933;28;20677;-59
2022/12/29 09:40:55;;;;;;;0.60;0.60;;;;;;;8.33;100.00;100547.38;5049373;28;20201;-59
2022/12/29 09:43:50;;;;;;;0.70;0.70;;;;;;;8.44;100.00;100550.75;5049224;28;20264;-59
2022/12/29 09:46:25;;;;;;;1.10;1.10;;;;;;;8.47;100.00;100541.34;5048284;28;20258;-59
2022/12/29 09:49:00;;;;;;;1.10;1.10;;;;;;;8.60;100.00;100540.44;5049452;28;20250;-59
2022/12/29 09:51:29;;;;;;;0.70;0.70;;;;;;;8.63;100.00;100537.88;5048285;28;20565;-59
2022/12/29 09:53:59;;;;;;;1.17;1.17;;;;;;;8.74;100.00;100538.69;5047666;28;20250;-59
2022/12/29 09:56:28;;;;;;;0.50;0.50;;;;;;;8.71;100.00;100533.59;5048132;28;20200;-59
2022/12/29 09:59:01;;;;;;;0.50;0.50;;;;;;;8.72;100.00;100520.81;5046540;28;20691;-59
2022/12/29 10:01:33;;;;;;;0.93;0.93;;;;;;;8.78;100.00;100522.50;5048442;28;20205;-59
2022/12/29 10:04:02;;;;;;;0.57;0.57;;;;;;;8.83;100.00;100510.53;5047929;28;20664;-59
2022/12/29 10:06:38;;;;;;;0.53;0.53;;;;;;;8.81;100.00;100499.47;5050221;28;20608;-59
2022/12/29 10:09:16;;;;;;;0.47;0.47;;;;;;;8.96;100.00;100510.44;5048823;28;20621;-59
2022/12/29 10:12:12;;;;;;;0.40;0.40;;;;;;;9.03;100.00;100508.72;5047087;28;20211;-60
2022/12/29 10:14:58;;;;;;;0.80;0.80;;;;;;;9.02;99.84;100495.91;5048618;28;20286;-60
2022/12/29 10:17:35;;;;;;;0.50;0.50;;;;;;;9.15;100.00;100495.81;5048137;28;20660;-59
2022/12/29 10:20:28;;;;;;;0.60;0.60;;;;;;;9.29;99.87;100499.16;5047545;28;20208;-59
2022/12/29 10:23:10;;;;;;;0.40;0.40;;;;;;;9.33;100.00;100490.59;5046140;28;20212;-60
2022/12/29 10:25:40;;;;;;;0.47;0.47;;;;;;;9.33;100.00;100489.75;5047631;28;20216;-59
2022/12/29 10:28:17;;;;;;;0.83;0.83;;;;;;;9.44;100.00;100486.22;5047366;28;20627;-61
2022/12/29 10:30:46;;;;;;;0.90;0.90;;;;;;;9.42;99.18;100490.53;5047582;28;20684;-60
2022/12/29 10:33:19;;;;;;;0.57;0.57;;;;;;;9.42;100.00;100479.44;5046768;28;20201;-60
2022/12/29 10:35:48;;;;;;;0.90;0.90;;;;;;;9.50;100.00;100483.59;5047199;28;20208;-59
2022/12/29 10:38:26;;;;;;;0.57;0.57;;;;;;;9.64;99.74;100470.69;5046880;28;20236;-59
2022/12/29 10:40:58;;;;;;;0.50;0.50;;;;;;;9.69;97.55;100468.97;5045632;28;20212;-60
2022/12/29 10:43:27;;;;;;;0.83;0.83;;;;;;;9.56;99.03;100466.50;5048395;28;20247;-59
2022/12/29 10:45:57;;;;;;;0.53;0.53;;;;;;;9.62;99.79;100471.56;5049392;28;20247;-60
2022/12/29 10:48:26;;;;;;;0.40;0.40;;;;;;;9.67;99.01;100474.94;5049603;28;20250;-60
2022/12/29 10:50:58;;;;;;;1.03;1.03;;;;;;;9.75;100.00;100463.78;5048875;28;20204;-60
2022/12/29 10:53:31;;;;;;;0.60;0.60;;;;;;;9.83;100.00;100461.09;5047881;28;20208;-59
2022/12/29 10:56:01;;;;;;;0.50;0.50;;;;;;;9.89;99.11;100456.78;5048983;28;20203;-60
2022/12/29 10:58:32;;;;;;;0.60;0.60;;;;;;;9.82;98.35;100455.13;5049314;28;20259;-60
2022/12/29 11:00:59;;;;;;;0.50;0.50;;;;;;;9.80;98.12;100456.03;5050094;28;20223;-59
2022/12/29 11:03:44;;;;;;;1.43;1.33;;;;;;;9.82;97.91;100454.31;5048014;28;20264;-60
2022/12/29 11:06:16;;;;;;;0.73;0.73;;;;;;;9.91;96.98;100451.66;5047585;28;20200;-59
2022/12/29 11:08:52;;;;;;;0.50;0.50;;;;;;;9.97;97.83;100454.16;5048882;28;20631;-59
2022/12/29 11:11:25;;;;;;;1.80;0.97;;;;;;;10.06;98.66;100432.69;5049374;28;20223;-59
2022/12/29 11:13:58;;;;;;;0.80;0.80;;;;;;;10.12;98.67;100427.50;5047727;28;20706;-59
2022/12/29 11:16:31;;;;;;;0.70;0.70;;;;;;;10.23;96.92;100434.22;5048143;28;20276;-59
2022/12/29 11:18:58;;;;;;;0.93;0.93;;;;;;;10.10;96.90;100409.59;5050255;28;20675;-59
2022/12/29 11:21:29;;;;;;;1.70;1.70;;;;;;;10.14;96.92;100423.25;5050443;28;20673;-59
2022/12/29 11:23:59;;;;;;;0.80;0.80;;;;;;;10.15;96.98;100428.34;5047431;28;20204;-59
2022/12/29 11:26:27;;;;;;;0.70;0.70;;;;;;;10.22;96.54;100429.97;5048957;28;20201;-59
2022/12/29 11:29:22;;;;;;;0.60;0.60;;;;;;;10.17;96.86;100431.75;5046514;28;20208;-59
2022/12/29 11:31:50;;;;;;;1.00;1.00;;;;;;;10.22;96.49;100429.09;5037345;28;20201;-59
2022/12/29 11:34:23;;;;;;;0.67;0.67;;;;;;;10.25;95.80;100419.66;5048639;28;20248;-58
2022/12/29 11:36:52;;;;;;;0.53;0.53;;;;;;;10.33;95.75;100422.16;5047887;28;20295;-60
2022/12/29 11:39:43;;;;;;;0.50;0.50;;;;;;;10.41;95.92;100415.19;5045594;28;20201;-59
2022/12/29 11:42:15;;;;;;;1.20;1.13;;;;;;;10.41;95.30;100416.03;5048074;28;20691;-59
2022/12/29 11:44:45;;;;;;;0.40;0.40;;;;;;;10.45;95.08;100410.00;5047929;28;20217;-59
2022/12/29 11:47:23;;;;;;;0.57;0.57;;;;;;;10.61;94.87;100409.78;5049958;28;20209;-59
2022/12/29 11:49:52;;;;;;;0.90;0.90;;;;;;;10.63;94.23;100400.38;5048727;28;20204;-59
2022/12/29 11:52:23;;;;;;;0.70;0.70;;;;;;;10.72;94.75;100403.66;5050847;28;20450;-60
2022/12/29 11:54:52;;;;;;;0.50;0.50;;;;;;;10.83;94.41;100404.31;5050076;28;20477;-58
2022/12/29 11:57:20;;;;;;;0.40;0.40;;;;;;;10.85;91.29;100382.09;5053477;28;20205;-58
2022/12/29 11:59:51;;;;;;;0.50;0.50;;;;;;;10.98;90.22;100387.88;5053719;28;20199;-58
2022/12/29 12:02:45;;;;;;;0.40;0.40;;;;;;;10.91;90.64;100384.56;5053002;28;20258;-56
2022/12/29 12:05:21;;;;;;;0.90;0.90;;;;;;;10.88;91.02;100365.78;5051496;28;20252;-57
2022/12/29 12:07:53;;;;;;;5.97;1.33;;;;;;;11.01;91.52;100377.56;5053299;28;20196;-57
2022/12/29 12:10:28;;;;;;;0.70;0.70;;;;;;;11.09;90.54;100380.81;5053349;28;20565;-57
2022/12/29 12:13:04;;;;;;;0.83;0.83;;;;;;;11.03;90.22;100380.94;5052556;28;20200;-59